Time;durP1;ratioP1;P1;durP2;ratioP2;P2;SDS_P1;SDS_P2;PMS_P1;PMS_P2;Temp;Humidity;BMP_temperature;BMP_pressure;BME280_temperature;BME280_humidity;BME280_pressure;Samples;Min_cycle;Max_cycle;Signal;HPM_P1;HPM_P2
2021/04/26 00:00:31;;;;;;;48.55;45.65;;;18.30;99.90;;;;;;5075560;28;20020;-70
2021/04/26 00:03:00;;;;;;;48.60;45.63;;;18.30;99.90;;;;;;5075592;28;20021;-67
2021/04/26 00:05:30;;;;;;;47.22;44.53;;;18.30;99.90;;;;;;5074895;28;20389;-69
2021/04/26 00:07:58;;;;;;;47.70;44.67;;;18.00;99.90;;;;;;5075417;28;20020;-67
2021/04/26 00:10:26;;;;;;;45.00;41.97;;;18.20;99.90;;;;;;5075418;28;20028;-69
2021/04/26 00:12:54;;;;;;;43.17;40.35;;;18.30;99.90;;;;;;5074046;28;20028;-68
2021/04/26 00:15:24;;;;;;;42.63;39.90;;;18.50;99.90;;;;;;5075317;28;20027;-71
2021/04/26 00:17:52;;;;;;;41.03;38.55;;;18.60;99.90;;;;;;5074051;28;20056;-72
2021/04/26 00:20:22;;;;;;;40.28;37.67;;;18.60;99.90;;;;;;5073906;28;20370;-70
2021/04/26 00:22:50;;;;;;;41.22;38.78;;;18.70;99.90;;;;;;5075334;28;20378;-69
2021/04/26 00:25:17;;;;;;;39.92;37.83;;;18.90;99.90;;;;;;5073925;28;20082;-71
2021/04/26 00:27:45;;;;;;;38.53;36.08;;;19.00;99.90;;;;;;5075117;28;20436;-71
2021/04/26 00:30:15;;;;;;;40.20;38.03;;;19.10;99.90;;;;;;5075140;28;20028;-69
2021/04/26 00:32:42;;;;;;;;;;;19.00;99.90;;;;;;5075505;28;20388;-69
2021/04/26 00:35:10;;;;;;;36.40;34.10;;;19.00;99.90;;;;;;5074984;28;19905;-68
2021/04/26 00:37:39;;;;;;;35.60;33.35;;;19.20;99.90;;;;;;5075002;28;20025;-73
2021/04/26 00:40:08;;;;;;;38.03;35.83;;;19.30;99.90;;;;;;5074656;28;20040;-71
2021/04/26 00:42:36;;;;;;;35.53;33.15;;;19.40;99.90;;;;;;5074813;28;20021;-70
2021/04/26 00:45:09;;;;;;;33.90;31.70;;;19.50;99.90;;;;;;5074638;28;20104;-68
2021/04/26 00:47:38;;;;;;;32.45;30.25;;;19.40;99.90;;;;;;5073439;28;20163;-74
2021/04/26 00:50:14;;;;;;;29.73;27.92;;;19.50;99.90;;;;;;5073499;28;20027;-74
2021/04/26 00:52:42;;;;;;;31.60;29.50;;;19.60;99.90;;;;;;5074810;28;20028;-74
2021/04/26 00:55:11;;;;;;;28.77;26.90;;;19.90;99.90;;;;;;5074610;28;20028;-74
2021/04/26 00:57:38;;;;;;;28.30;26.40;;;19.70;99.90;;;;;;5073106;28;20025;-73
2021/04/26 01:00:08;;;;;;;28.58;26.58;;;19.80;99.90;;;;;;5073171;28;20025;-73
2021/04/26 01:02:36;;;;;;;27.90;26.08;;;19.60;99.90;;;;;;5074444;28;20016;-75
2021/04/26 01:05:07;;;;;;;28.90;26.90;;;19.20;99.90;;;;;;5074495;28;20017;-74
2021/04/26 01:07:35;;;;;;;29.08;27.08;;;19.50;99.90;;;;;;5074215;28;20399;-73
2021/04/26 01:10:05;;;;;;;27.27;25.42;;;19.40;99.90;;;;;;5074148;28;20025;-71
2021/04/26 01:13:10;;;;;;;25.42;23.73;;;19.50;99.90;;;;;;5074100;28;20431;-73
2021/04/26 01:16:18;;;;;;;25.08;23.48;;;19.80;99.90;;;;;;5072701;28;20028;-71
2021/04/26 01:19:00;;;;;;;23.42;22.00;;;20.00;99.90;;;;;;5050968;28;20024;-69
2021/04/26 01:22:16;;;;;;;24.52;22.67;;;20.00;99.90;;;;;;5072735;28;20021;-69
2021/04/26 01:24:51;;;;;;;22.60;21.20;;;20.20;99.90;;;;;;5074094;28;20090;-71
2021/04/26 01:27:52;;;;;;;21.95;20.20;;;20.50;99.90;;;;;;5072703;28;20488;-70
2021/04/26 01:30:34;;;;;;;;;;;20.20;99.90;;;;;;5074332;28;20515;-70
2021/04/26 01:33:10;;;;;;;21.05;19.45;;;20.40;99.90;;;;;;5073877;28;19926;-69
2021/04/26 01:35:39;;;;;;;21.52;19.60;;;20.30;99.90;;;;;;5073804;28;20024;-71
2021/04/26 01:38:14;;;;;;;18.88;17.45;;;20.40;99.90;;;;;;5073754;28;20020;-71
2021/04/26 01:40:44;;;;;;;19.90;18.30;;;20.50;99.90;;;;;;5072393;28;20517;-69
2021/04/26 01:43:13;;;;;;;20.38;18.75;;;20.20;99.90;;;;;;5072381;28;20141;-70
2021/04/26 01:45:42;;;;;;;19.08;17.55;;;20.40;99.90;;;;;;5073678;28;20392;-71
2021/04/26 01:48:09;;;;;;;18.35;16.83;;;20.60;99.90;;;;;;5073751;28;20137;-68
2021/04/26 01:50:37;;;;;;;17.73;16.33;;;20.80;99.90;;;;;;5073580;28;20024;-69
2021/04/26 01:53:05;;;;;;;17.77;16.58;;;20.80;99.90;;;;;;5073480;28;20016;-69
2021/04/26 01:55:34;;;;;;;18.83;17.38;;;20.70;99.90;;;;;;5073037;28;20062;-74
2021/04/26 01:58:02;;;;;;;16.65;15.35;;;20.60;99.90;;;;;;5071955;28;20500;-73
2021/04/26 02:00:32;;;;;;;15.98;14.77;;;20.80;99.90;;;;;;5073197;28;20058;-72
2021/04/26 02:03:00;;;;;;;15.55;14.35;;;20.90;99.90;;;;;;5071878;28;20020;-70
2021/04/26 02:05:30;;;;;;;15.63;14.35;;;20.80;99.90;;;;;;5073403;28;20393;-69
2021/04/26 02:07:58;;;;;;;14.88;13.77;;;20.30;99.90;;;;;;5073133;28;20029;-69
2021/04/26 02:10:28;;;;;;;14.57;13.68;;;20.30;99.90;;;;;;5073098;28;20362;-69
2021/04/26 02:12:58;;;;;;;;;;;20.50;99.90;;;;;;5073446;28;20024;-69
2021/04/26 02:15:29;;;;;;;15.10;13.80;;;20.50;99.90;;;;;;5073286;28;19951;-70
2021/04/26 02:17:56;;;;;;;15.55;14.45;;;20.30;99.90;;;;;;5071794;28;20392;-74
2021/04/26 02:20:24;;;;;;;16.35;14.93;;;20.20;99.90;;;;;;5071606;28;20021;-69
2021/04/26 02:22:53;;;;;;;15.07;13.93;;;20.10;99.90;;;;;;5072915;28;20154;-69
2021/04/26 02:25:21;;;;;;;16.65;15.00;;;20.10;99.90;;;;;;5072999;28;20021;-70
2021/04/26 02:27:48;;;;;;;29.52;18.25;;;20.10;99.90;;;;;;5072723;28;20400;-70
2021/04/26 02:30:17;;;;;;;15.50;14.20;;;20.00;99.90;;;;;;5072908;28;20024;-70
2021/04/26 02:33:12;;;;;;;16.27;14.80;;;19.90;99.90;;;;;;5073092;28;20023;-69
2021/04/26 02:35:42;;;;;;;16.35;14.73;;;19.80;99.90;;;;;;5071582;28;20365;-69
2021/04/26 02:38:17;;;;;;;15.07;13.70;;;19.70;99.90;;;;;;5072961;28;20088;-68
2021/04/26 02:40:52;;;;;;;14.75;13.65;;;19.60;99.90;;;;;;5072709;28;20118;-70
2021/04/26 02:43:21;;;;;;;13.65;12.60;;;19.60;99.90;;;;;;5072885;28;20031;-70
2021/04/26 02:45:57;;;;;;;13.93;12.70;;;19.70;99.90;;;;;;5072792;28;20021;-70
2021/04/26 02:48:26;;;;;;;22.83;14.65;;;19.70;99.90;;;;;;5072652;28;20143;-71
2021/04/26 02:50:56;;;;;;;14.63;11.70;;;19.70;99.90;;;;;;5072612;28;20067;-67
2021/04/26 02:53:28;;;;;;;12.65;11.52;;;19.70;99.90;;;;;;5072848;28;20021;-68
2021/04/26 02:56:04;;;;;;;17.08;12.80;;;20.10;99.90;;;;;;5072728;28;20071;-69
2021/04/26 02:58:32;;;;;;;12.20;11.00;;;20.70;99.90;;;;;;5072773;28;20097;-68
2021/04/26 03:01:01;;;;;;;13.32;12.32;;;21.10;99.90;;;;;;5072548;28;20044;-67
2021/04/26 03:03:31;;;;;;;11.95;10.77;;;21.00;99.90;;;;;;5072786;28;20107;-68
2021/04/26 03:05:59;;;;;;;11.77;10.60;;;20.70;99.90;;;;;;5072457;28;20357;-67
2021/04/26 03:08:28;;;;;;;11.60;10.18;;;21.00;99.90;;;;;;5072588;28;20084;-67
2021/04/26 03:10:57;;;;;;;13.75;10.10;;;21.20;99.90;;;;;;5071130;28;20473;-69
2021/04/26 03:13:31;;;;;;;12.40;11.25;;;21.40;99.90;;;;;;5071273;28;20033;-67
2021/04/26 03:15:58;;;;;;;15.45;11.38;;;21.60;99.90;;;;;;5072394;28;20497;-67
2021/04/26 03:18:26;;;;;;;9.82;9.02;;;21.60;99.90;;;;;;5071309;28;20365;-66
2021/04/26 03:20:55;;;;;;;8.50;7.80;;;21.90;99.90;;;;;;5072428;28;20021;-68
2021/04/26 03:23:26;;;;;;;11.88;10.88;;;21.90;99.90;;;;;;5072442;28;20024;-68
2021/04/26 03:25:57;;;;;;;10.80;9.85;;;22.10;99.90;;;;;;5071286;28;20527;-68
2021/04/26 03:28:26;;;;;;;11.02;9.85;;;22.20;99.90;;;;;;5070988;28;20025;-68
2021/04/26 03:30:53;;;;;;;10.27;9.45;;;22.20;99.90;;;;;;5070932;28;20029;-67
2021/04/26 03:33:21;;;;;;;13.80;11.23;;;22.20;99.90;;;;;;5070975;28;20025;-68
2021/04/26 03:35:49;;;;;;;11.00;10.07;;;22.20;99.90;;;;;;5071944;28;20051;-71
2021/04/26 03:38:17;;;;;;;10.10;9.40;;;22.20;99.90;;;;;;5072237;28;20385;-69
2021/04/26 03:40:44;;;;;;;10.27;9.45;;;22.40;99.90;;;;;;5073628;28;20505;-68
2021/04/26 03:43:14;;;;;;;10.10;9.40;;;22.60;99.90;;;;;;5075694;28;20385;-63
2021/04/26 03:45:42;;;;;;;11.50;10.47;;;22.40;99.80;;;;;;5075634;28;20017;-66
2021/04/26 03:48:10;;;;;;;11.02;10.18;;;22.40;99.90;;;;;;5075712;28;20330;-67
2021/04/26 03:50:38;;;;;;;11.18;10.18;;;22.60;99.90;;;;;;5074273;28;20504;-68
2021/04/26 03:53:05;;;;;;;10.75;9.82;;;22.60;99.80;;;;;;5075714;28;20091;-68
2021/04/26 03:55:32;;;;;;;11.05;10.10;;;22.50;99.40;;;;;;5074100;28;20149;-68
2021/04/26 03:58:00;;;;;;;10.55;9.55;;;22.40;99.50;;;;;;5075693;28;20409;-69
2021/04/26 04:00:27;;;;;;;10.38;9.50;;;22.40;99.90;;;;;;5075471;28;20016;-69
2021/04/26 04:02:55;;;;;;;11.10;10.00;;;22.50;99.80;;;;;;5075358;28;20024;-71
2021/04/26 04:05:22;;;;;;;10.93;10.07;;;22.60;99.60;;;;;;5075466;28;20036;-73
2021/04/26 04:07:50;;;;;;;11.77;10.18;;;22.50;99.90;;;;;;5074071;28;20031;-71
2021/04/26 04:10:18;;;;;;;11.02;10.13;;;22.30;99.60;;;;;;5075442;28;20023;-71
2021/04/26 04:12:45;;;;;;;11.10;10.20;;;22.40;99.90;;;;;;5075501;28;20078;-71
2021/04/26 04:15:13;;;;;;;11.43;10.32;;;22.40;99.20;;;;;;5075285;28;20031;-70
2021/04/26 04:17:40;;;;;;;20.90;12.40;;;22.40;99.90;;;;;;5075168;28;20027;-73
2021/04/26 04:20:09;;;;;;;14.07;10.07;;;22.50;99.60;;;;;;5075024;28;20020;-70
2021/04/26 04:22:37;;;;;;;11.20;10.07;;;22.60;99.80;;;;;;5075091;28;20029;-71
2021/04/26 04:25:05;;;;;;;22.73;12.73;;;22.50;99.90;;;;;;5075080;28;20019;-64
2021/04/26 04:27:34;;;;;;;21.60;11.85;;;22.40;99.30;;;;;;5075031;28;20024;-64
2021/04/26 04:30:02;;;;;;;11.80;10.75;;;22.30;99.60;;;;;;5074905;28;20435;-65
2021/04/26 04:32:29;;;;;;;11.02;10.23;;;22.20;99.80;;;;;;5074939;28;20025;-66
2021/04/26 04:34:57;;;;;;;11.15;10.35;;;22.10;99.90;;;;;;5074857;28;20029;-67
2021/04/26 04:37:25;;;;;;;11.40;10.40;;;22.00;99.90;;;;;;5074705;28;20074;-65
2021/04/26 04:39:52;;;;;;;11.63;10.73;;;21.80;99.90;;;;;;5074665;28;20052;-65
2021/04/26 04:42:19;;;;;;;11.93;10.82;;;21.80;99.90;;;;;;5074708;28;20021;-68
2021/04/26 04:44:47;;;;;;;12.85;11.73;;;21.90;99.90;;;;;;5073451;28;20017;-65
2021/04/26 04:47:14;;;;;;;12.35;11.15;;;21.90;99.90;;;;;;5074683;28;20027;-67
2021/04/26 04:49:41;;;;;;;13.27;11.80;;;21.90;99.90;;;;;;5074587;28;20508;-67
2021/04/26 04:52:09;;;;;;;11.60;10.63;;;21.90;99.90;;;;;;5073118;28;20032;-66
2021/04/26 04:54:36;;;;;;;11.63;10.50;;;21.80;99.90;;;;;;5074490;28;20501;-66
2021/04/26 04:57:04;;;;;;;12.75;11.25;;;21.80;99.90;;;;;;5074472;28;20145;-67
2021/04/26 04:59:31;;;;;;;11.55;10.55;;;21.70;99.90;;;;;;5074813;28;20535;-66
2021/04/26 05:01:58;;;;;;;12.05;10.35;;;21.70;99.90;;;;;;5074435;28;20024;-67
2021/04/26 05:04:26;;;;;;;11.63;10.10;;;21.60;99.90;;;;;;5074341;28;20024;-67
2021/04/26 05:06:54;;;;;;;10.60;9.68;;;21.40;99.90;;;;;;5073119;28;20063;-67
2021/04/26 05:09:22;;;;;;;11.43;10.63;;;21.30;99.90;;;;;;5073028;28;20032;-67
2021/04/26 05:11:49;;;;;;;11.90;10.77;;;21.30;99.90;;;;;;5074201;28;20065;-67
2021/04/26 05:14:17;;;;;;;12.43;11.23;;;21.30;99.90;;;;;;5074175;28;20478;-67
2021/04/26 05:16:44;;;;;;;12.73;11.55;;;21.30;99.90;;;;;;5074164;28;20024;-67
2021/04/26 05:19:13;;;;;;;11.85;10.75;;;21.20;99.90;;;;;;5074050;28;20021;-66
2021/04/26 05:21:42;;;;;;;11.65;10.75;;;21.10;99.90;;;;;;5074005;28;20485;-67
2021/04/26 05:24:11;;;;;;;14.20;12.53;;;21.00;99.90;;;;;;5073963;28;20037;-66
2021/04/26 05:26:38;;;;;;;14.40;12.25;;;20.80;99.90;;;;;;5072690;28;20415;-66
2021/04/26 05:29:06;;;;;;;23.63;14.27;;;20.80;99.90;;;;;;5073816;28;20029;-66
2021/04/26 05:31:33;;;;;;;11.98;10.98;;;20.80;99.90;;;;;;5073806;28;20107;-65
2021/04/26 05:34:01;;;;;;;12.00;10.88;;;20.80;99.90;;;;;;5072558;28;20032;-67
2021/04/26 05:36:28;;;;;;;11.90;10.80;;;20.80;99.90;;;;;;5072426;28;20052;-66
2021/04/26 05:38:55;;;;;;;11.15;10.35;;;20.70;99.90;;;;;;5073523;28;20098;-66
2021/04/26 05:41:23;;;;;;;10.73;9.73;;;20.60;99.90;;;;;;5073673;28;20025;-65
2021/04/26 05:43:50;;;;;;;11.45;10.40;;;20.60;99.90;;;;;;5073701;28;20066;-67
2021/04/26 05:46:17;;;;;;;22.52;11.65;;;20.60;99.90;;;;;;5073519;28;20082;-68
2021/04/26 05:48:45;;;;;;;15.85;11.48;;;20.60;99.90;;;;;;5073572;28;20028;-65
2021/04/26 05:51:12;;;;;;;13.40;10.00;;;20.50;99.90;;;;;;5073404;28;20074;-65
2021/04/26 05:53:39;;;;;;;10.68;9.63;;;20.40;99.90;;;;;;5073596;28;20038;-63
2021/04/26 05:56:06;;;;;;;10.95;9.85;;;20.50;99.90;;;;;;5073327;28;20027;-63
2021/04/26 05:58:34;;;;;;;17.90;10.50;;;20.40;99.90;;;;;;5073453;28;20024;-67
2021/04/26 06:01:01;;;;;;;10.35;9.55;;;20.40;99.90;;;;;;5073343;28;20557;-66
2021/04/26 06:03:29;;;;;;;13.88;10.50;;;20.30;99.90;;;;;;5072739;28;20104;-73
2021/04/26 06:05:57;;;;;;;10.20;9.40;;;20.10;99.90;;;;;;5073090;28;20043;-73
2021/04/26 06:08:26;;;;;;;9.77;9.00;;;20.10;99.90;;;;;;5071883;28;20036;-72
2021/04/26 06:10:53;;;;;;;10.07;9.27;;;20.10;99.90;;;;;;5073049;28;20021;-70
2021/04/26 06:13:21;;;;;;;15.50;10.63;;;20.00;99.90;;;;;;5073092;28;20495;-70
2021/04/26 06:15:48;;;;;;;18.17;12.00;;;19.90;99.90;;;;;;5073296;28;20374;-64
2021/04/26 06:18:18;;;;;;;18.50;12.27;;;19.80;99.90;;;;;;5073005;28;20020;-63
2021/04/26 06:20:48;;;;;;;23.43;12.07;;;19.80;99.90;;;;;;5071639;28;20020;-63
2021/04/26 06:23:16;;;;;;;14.50;10.95;;;19.80;99.90;;;;;;5073235;28;20024;-63
2021/04/26 06:25:44;;;;;;;10.50;9.70;;;19.80;99.90;;;;;;5072823;28;20393;-65
2021/04/26 06:28:13;;;;;;;11.60;10.07;;;19.70;99.90;;;;;;5072950;28;20099;-64
2021/04/26 06:30:42;;;;;;;11.25;10.23;;;19.50;99.90;;;;;;5072755;28;20031;-63
2021/04/26 06:33:14;;;;;;;20.98;11.13;;;19.40;99.90;;;;;;5073054;28;20067;-64
2021/04/26 06:35:47;;;;;;;17.10;11.93;;;19.30;99.90;;;;;;5072943;28;20051;-64
2021/04/26 06:38:14;;;;;;;11.05;9.85;;;19.30;99.90;;;;;;5072841;28;20021;-64
2021/04/26 06:40:43;;;;;;;9.77;9.07;;;19.20;99.90;;;;;;5071482;28;20290;-64
2021/04/26 06:43:12;;;;;;;12.70;10.52;;;19.10;99.90;;;;;;5072683;28;20020;-65
2021/04/26 06:45:40;;;;;;;24.13;12.23;;;19.10;99.90;;;;;;5072724;28;20021;-65
2021/04/26 06:48:08;;;;;;;17.65;11.20;;;19.10;99.90;;;;;;5072577;28;20099;-68
2021/04/26 06:50:36;;;;;;;10.77;9.98;;;19.10;99.90;;;;;;5072599;28;20447;-64
2021/04/26 06:53:04;;;;;;;10.50;9.50;;;19.00;99.90;;;;;;5072700;28;20097;-63
2021/04/26 06:55:31;;;;;;;10.80;9.90;;;18.90;99.90;;;;;;5072651;28;20438;-67
2021/04/26 06:57:59;;;;;;;10.50;9.70;;;18.70;99.90;;;;;;5072551;28;20025;-65
2021/04/26 07:00:28;;;;;;;10.00;9.45;;;18.70;99.90;;;;;;5072652;28;20144;-64
2021/04/26 07:02:55;;;;;;;9.60;8.90;;;18.60;99.90;;;;;;5072581;28;20025;-64
2021/04/26 07:05:24;;;;;;;9.70;8.85;;;18.40;99.90;;;;;;5072697;28;20376;-65
2021/04/26 07:07:51;;;;;;;10.45;9.55;;;18.30;99.90;;;;;;5072684;28;20103;-64
2021/04/26 07:10:19;;;;;;;9.57;9.00;;;18.30;99.90;;;;;;5072589;28;20028;-64
2021/04/26 07:12:46;;;;;;;10.23;9.38;;;18.20;99.90;;;;;;5072528;28;20029;-64
2021/04/26 07:15:15;;;;;;;10.20;9.60;;;18.20;99.90;;;;;;5073588;28;20046;-64
2021/04/26 07:17:43;;;;;;;10.27;9.50;;;18.10;99.90;;;;;;5076227;28;20032;-64
2021/04/26 07:20:13;;;;;;;10.88;9.98;;;18.00;99.90;;;;;;5076386;28;20013;-64
2021/04/26 07:22:41;;;;;;;10.75;10.05;;;18.00;99.90;;;;;;5076285;28;20025;-65
2021/04/26 07:25:09;;;;;;;12.07;11.27;;;18.00;99.90;;;;;;5076305;28;20017;-66
2021/04/26 07:27:36;;;;;;;12.27;11.48;;;17.90;99.90;;;;;;5076078;28;20060;-67
2021/04/26 07:30:06;;;;;;;13.82;12.73;;;17.80;99.90;;;;;;5076065;28;20044;-67
2021/04/26 07:32:33;;;;;;;12.80;11.80;;;17.70;99.90;;;;;;5074683;28;20489;-67
2021/04/26 07:35:00;;;;;;;11.60;10.80;;;17.60;99.90;;;;;;5076069;28;20094;-67
2021/04/26 07:37:28;;;;;;;11.35;10.73;;;17.50;99.90;;;;;;5075942;28;20100;-68
2021/04/26 07:39:55;;;;;;;11.07;10.50;;;17.40;99.90;;;;;;5076098;28;20045;-67
2021/04/26 07:42:23;;;;;;;12.93;12.02;;;17.40;99.90;;;;;;5075854;28;20485;-67
2021/04/26 07:44:50;;;;;;;14.13;13.05;;;17.30;99.90;;;;;;5075876;28;20508;-68
2021/04/26 07:47:17;;;;;;;14.20;13.35;;;17.30;99.90;;;;;;5074599;28;20179;-69
2021/04/26 07:49:45;;;;;;;14.80;13.90;;;17.20;99.90;;;;;;5076049;28;20055;-70
2021/04/26 07:52:12;;;;;;;14.68;13.70;;;17.10;99.90;;;;;;5074485;28;20032;-70
2021/04/26 07:54:39;;;;;;;16.02;14.73;;;17.10;99.90;;;;;;5074481;28;20021;-69
2021/04/26 07:57:08;;;;;;;16.25;15.23;;;17.10;99.90;;;;;;5075713;28;20049;-69
2021/04/26 07:59:35;;;;;;;16.55;15.45;;;17.10;99.90;;;;;;5075629;28;20077;-70
2021/04/26 08:02:03;;;;;;;16.95;15.77;;;17.00;99.90;;;;;;5075697;28;20031;-70
2021/04/26 08:04:30;;;;;;;18.25;16.90;;;16.90;99.90;;;;;;5075584;28;20019;-69
2021/04/26 08:06:58;;;;;;;19.20;17.75;;;17.00;99.90;;;;;;5075674;28;20522;-69
2021/04/26 08:09:25;;;;;;;19.30;17.83;;;16.90;99.90;;;;;;5075563;28;20024;-70
2021/04/26 08:11:52;;;;;;;20.25;18.80;;;16.90;99.90;;;;;;5074288;28;20537;-69
2021/04/26 08:14:20;;;;;;;22.35;20.85;;;16.90;99.90;;;;;;5075753;28;20017;-70
2021/04/26 08:16:47;;;;;;;22.67;21.27;;;16.80;99.90;;;;;;5075568;28;20020;-69
2021/04/26 08:19:16;;;;;;;23.10;21.60;;;16.80;99.90;;;;;;5075442;28;20032;-69
2021/04/26 08:21:45;;;;;;;23.52;22.13;;;16.70;99.90;;;;;;5075243;28;20099;-68
2021/04/26 08:24:13;;;;;;;25.05;23.65;;;16.70;99.90;;;;;;5075268;28;20020;-70
2021/04/26 08:26:40;;;;;;;26.45;25.05;;;16.70;99.90;;;;;;5074792;28;20036;-69
2021/04/26 08:29:08;;;;;;;27.58;25.88;;;16.70;99.90;;;;;;5075317;28;20120;-69
2021/04/26 08:31:35;;;;;;;28.25;26.30;;;16.70;99.90;;;;;;5075448;28;20095;-70
2021/04/26 08:34:03;;;;;;;29.70;27.70;;;16.70;99.90;;;;;;5073861;28;20078;-70
2021/04/26 08:36:30;;;;;;;29.58;27.77;;;16.60;99.90;;;;;;5075076;28;20028;-66
2021/04/26 08:38:58;;;;;;;30.33;28.15;;;16.60;99.90;;;;;;5074932;28;20071;-66
2021/04/26 08:41:25;;;;;;;30.65;28.45;;;16.50;99.90;;;;;;5075061;28;20017;-65
2021/04/26 08:43:52;;;;;;;30.38;28.40;;;16.40;99.90;;;;;;5073440;28;20025;-65
2021/04/26 08:46:20;;;;;;;31.23;28.98;;;16.40;99.90;;;;;;5074690;28;20073;-64
2021/04/26 08:48:47;;;;;;;31.80;29.75;;;16.30;99.90;;;;;;5074689;28;20432;-65
2021/04/26 08:51:14;;;;;;;33.33;30.73;;;16.30;99.90;;;;;;5074495;28;20017;-64
2021/04/26 08:53:42;;;;;;;32.42;30.15;;;16.20;99.90;;;;;;5074543;28;20032;-65
2021/04/26 08:56:10;;;;;;;33.03;30.77;;;16.20;99.90;;;;;;5073137;28;20170;-61
2021/04/26 08:58:38;;;;;;;32.92;30.80;;;16.20;99.90;;;;;;5073123;28;20485;-64
2021/04/26 09:01:05;;;;;;;34.90;32.60;;;16.10;99.90;;;;;;5074392;28;20384;-66
2021/04/26 09:03:36;;;;;;;34.72;32.42;;;16.00;99.90;;;;;;5074351;28;20370;-65
2021/04/26 09:06:06;;;;;;;35.63;33.13;;;15.90;99.90;;;;;;5074339;28;20020;-64
2021/04/26 09:08:33;;;;;;;33.75;31.30;;;15.90;99.90;;;;;;5074446;28;20031;-63
2021/04/26 09:11:03;;;;;;;35.63;32.83;;;15.90;99.90;;;;;;5074195;28;20021;-64
2021/04/26 09:13:39;;;;;;;35.65;33.08;;;15.80;99.90;;;;;;5074112;28;20024;-64
2021/04/26 09:16:31;;;;;;;35.40;32.63;;;15.80;99.90;;;;;;5073963;28;20024;-63
2021/04/26 09:19:05;;;;;;;37.28;34.58;;;15.80;99.90;;;;;;5074069;28;20020;-63
2021/04/26 09:21:43;;;;;;;36.08;33.65;;;15.80;99.90;;;;;;5074079;28;20024;-63
2021/04/26 09:24:14;;;;;;;36.33;33.53;;;15.80;99.90;;;;;;5073905;28;20099;-63
2021/04/26 09:26:44;;;;;;;36.70;33.92;;;15.80;99.90;;;;;;5073984;28;20050;-64
2021/04/26 09:29:26;;;;;;;35.75;32.95;;;15.80;99.90;;;;;;5073861;28;20028;-62
2021/04/26 09:31:59;;;;;;;36.13;33.25;;;15.80;99.90;;;;;;5072580;28;20397;-64
2021/04/26 09:34:41;;;;;;;37.72;34.72;;;15.80;99.90;;;;;;5072556;28;20025;-64
2021/04/26 09:37:23;;;;;;;38.45;35.55;;;15.70;99.90;;;;;;5073409;28;20029;-64
2021/04/26 09:40:14;;;;;;;36.78;34.13;;;15.60;99.90;;;;;;5073364;28;20056;-64
2021/04/26 09:42:52;;;;;;;35.92;33.10;;;15.60;99.90;;;;;;5072332;28;20024;-63
2021/04/26 09:45:22;;;;;;;36.00;32.90;;;15.50;99.90;;;;;;5073672;28;20376;-63
2021/04/26 09:48:07;;;;;;;36.60;33.70;;;15.40;99.90;;;;;;5073853;28;20052;-64
2021/04/26 09:50:48;;;;;;;38.92;35.60;;;15.50;99.90;;;;;;5072132;28;20031;-64
2021/04/26 09:53:16;;;;;;;40.08;37.08;;;15.40;99.90;;;;;;5073428;28;20028;-64
2021/04/26 09:55:43;;;;;;;41.47;38.30;;;15.40;99.90;;;;;;5073416;28;20024;-65
2021/04/26 09:58:11;;;;;;;41.47;37.92;;;15.40;99.90;;;;;;5073345;28;20028;-66
2021/04/26 10:00:39;;;;;;;40.10;36.97;;;15.40;99.90;;;;;;5073444;28;20017;-64
2021/04/26 10:03:06;;;;;;;40.25;37.00;;;15.40;99.90;;;;;;5073131;28;20473;-64
2021/04/26 10:05:35;;;;;;;40.83;37.65;;;15.30;99.90;;;;;;5071963;28;20109;-64
2021/04/26 10:08:03;;;;;;;42.03;38.58;;;15.20;99.90;;;;;;5073494;28;20040;-64
2021/04/26 10:10:30;;;;;;;41.85;38.35;;;15.20;99.90;;;;;;5073298;28;20113;-64
2021/04/26 10:12:57;;;;;;;40.78;37.58;;;15.20;99.90;;;;;;5073105;28;20024;-65
2021/04/26 10:15:27;;;;;;;39.90;36.60;;;15.20;99.90;;;;;;5071789;28;20334;-63
2021/04/26 10:17:56;;;;;;;41.72;38.17;;;15.10;99.90;;;;;;5071708;28;20145;-63
2021/04/26 10:20:39;;;;;;;41.40;38.08;;;15.20;99.90;;;;;;5071991;28;20365;-63
2021/04/26 10:23:27;;;;;;;42.10;38.90;;;15.20;99.90;;;;;;5073235;28;20024;-62
2021/04/26 10:25:54;;;;;;;42.95;39.60;;;15.10;99.90;;;;;;5062253;28;20043;-63
2021/04/26 10:28:32;;;;;;;44.00;40.33;;;15.10;99.90;;;;;;5073252;28;20060;-63
2021/04/26 10:31:05;;;;;;;42.22;38.92;;;15.10;99.90;;;;;;5072976;28;20019;-64
2021/04/26 10:33:58;;;;;;;43.13;39.05;;;15.00;99.90;;;;;;5072903;28;20025;-66
2021/04/26 10:36:53;;;;;;;41.60;38.20;;;15.00;99.90;;;;;;5072786;28;20035;-64
2021/04/26 10:39:24;;;;;;;40.75;37.42;;;15.00;99.90;;;;;;5072716;28;20049;-64
2021/04/26 10:41:58;;;;;;;40.97;37.88;;;14.90;99.90;;;;;;5072858;28;20402;-65
2021/04/26 10:44:41;;;;;;;42.38;38.78;;;14.90;99.90;;;;;;5071481;28;20017;-63
2021/04/26 10:47:23;;;;;;;41.75;38.13;;;14.90;99.90;;;;;;5071664;28;20481;-63
2021/04/26 10:49:54;;;;;;;43.97;40.50;;;14.90;99.90;;;;;;5075018;28;20028;-63
2021/04/26 10:52:30;;;;;;;40.80;37.45;;;14.90;99.90;;;;;;5075464;28;20112;-63
2021/04/26 10:55:32;;;;;;;41.25;38.10;;;14.90;99.90;;;;;;5076796;28;20366;-64
2021/04/26 10:58:02;;;;;;;41.03;37.70;;;14.90;99.90;;;;;;5076564;28;20392;-65
2021/04/26 11:00:36;;;;;;;40.15;36.90;;;14.80;99.90;;;;;;5076697;28;20025;-64
2021/04/26 11:03:06;;;;;;;41.15;37.80;;;14.80;99.90;;;;;;5076752;28;20029;-63
2021/04/26 11:05:37;;;;;;;40.28;37.03;;;14.70;99.90;;;;;;5076716;28;20021;-65
2021/04/26 11:08:17;;;;;;;41.53;37.95;;;14.60;99.90;;;;;;5076657;28;20033;-64
2021/04/26 11:10:50;;;;;;;41.53;38.27;;;14.60;99.90;;;;;;5075278;28;20111;-64
2021/04/26 11:13:33;;;;;;;43.13;39.50;;;14.60;99.90;;;;;;5075231;28;20265;-62
2021/04/26 11:16:23;;;;;;;42.90;39.30;;;14.50;99.90;;;;;;5076383;28;20036;-63
2021/04/26 11:19:00;;;;;;;42.45;38.85;;;14.60;99.90;;;;;;5075146;28;20029;-64
2021/04/26 11:21:48;;;;;;;43.33;39.38;;;14.60;99.90;;;;;;5076346;28;20105;-64
2021/04/26 11:24:25;;;;;;;44.58;41.00;;;14.60;99.90;;;;;;5076468;28;20094;-64
2021/04/26 11:27:11;;;;;;;45.00;41.40;;;14.60;99.90;;;;;;5076386;28;20032;-64
2021/04/26 11:29:45;;;;;;;46.75;43.08;;;14.60;99.90;;;;;;5076224;28;20049;-64
2021/04/26 11:32:17;;;;;;;43.05;39.33;;;14.60;99.90;;;;;;5074754;28;20479;-63
2021/04/26 11:34:50;;;;;;;43.35;40.03;;;14.40;99.90;;;;;;5076170;28;20024;-62
2021/04/26 11:37:34;;;;;;;43.70;40.13;;;14.40;99.90;;;;;;5075984;28;20107;-63
2021/04/26 11:40:21;;;;;;;40.70;37.28;;;14.30;99.90;;;;;;5075911;28;20052;-63
2021/04/26 11:42:49;;;;;;;47.03;43.05;;;14.30;99.90;;;;;;5076043;28;20016;-63
2021/04/26 11:45:24;;;;;;;46.05;42.35;;;14.40;99.90;;;;;;5075893;28;20107;-63
2021/04/26 11:47:51;;;;;;;42.97;39.38;;;14.40;99.90;;;;;;5075921;28;20079;-63
2021/04/26 11:50:18;;;;;;;46.30;42.80;;;14.30;99.90;;;;;;5075762;28;20021;-63
2021/04/26 11:52:46;;;;;;;45.97;42.17;;;14.30;99.90;;;;;;5075846;28;20109;-63
2021/04/26 11:55:17;;;;;;;45.75;42.08;;;14.30;99.90;;;;;;5075749;28;20027;-65
2021/04/26 11:57:52;;;;;;;47.22;43.78;;;14.30;99.90;;;;;;5075633;28;20031;-63
2021/04/26 12:00:32;;;;;;;46.90;43.30;;;14.30;99.90;;;;;;5075180;28;20485;-63
2021/04/26 12:03:13;;;;;;;46.80;43.17;;;14.30;99.90;;;;;;5075587;28;20027;-64
2021/04/26 12:05:42;;;;;;;48.90;45.05;;;14.30;99.90;;;;;;5075599;28;20536;-63
2021/04/26 12:08:10;;;;;;;48.42;44.80;;;14.30;99.90;;;;;;5075656;28;20442;-63
2021/04/26 12:10:40;;;;;;;48.20;44.40;;;14.30;99.90;;;;;;5075434;28;20385;-64
2021/04/26 12:13:08;;;;;;;;;;;14.30;99.90;;;;;;5074490;28;20021;-63
2021/04/26 12:15:38;;;;;;;50.13;46.05;;;14.30;99.90;;;;;;5075426;28;19912;-64
2021/04/26 12:18:08;;;;;;;48.30;44.63;;;14.30;99.90;;;;;;5075216;28;20070;-64
2021/04/26 12:20:38;;;;;;;48.53;44.90;;;14.20;99.90;;;;;;5074152;28;20025;-64
2021/04/26 12:23:14;;;;;;;47.80;43.90;;;14.20;99.90;;;;;;5075218;28;20065;-64
2021/04/26 12:25:45;;;;;;;48.05;44.33;;;14.20;99.90;;;;;;5075311;28;20025;-64
2021/04/26 12:28:13;;;;;;;51.05;46.65;;;14.20;99.90;;;;;;5075191;28;20028;-64
2021/04/26 12:30:43;;;;;;;48.90;44.92;;;14.20;99.90;;;;;;5075105;28;20155;-64
2021/04/26 12:33:23;;;;;;;47.05;43.30;;;14.20;99.90;;;;;;5075206;28;20035;-64
2021/04/26 12:35:51;;;;;;;50.23;46.00;;;14.20;99.90;;;;;;5075101;28;20039;-63
2021/04/26 12:38:25;;;;;;;49.28;45.08;;;14.20;99.90;;;;;;5075146;28;20052;-64
2021/04/26 12:40:52;;;;;;;49.15;45.15;;;14.20;99.90;;;;;;5074816;28;20079;-64
2021/04/26 12:43:19;;;;;;;49.90;46.05;;;14.20;99.90;;;;;;5075098;28;20420;-64
2021/04/26 12:45:49;;;;;;;49.42;45.35;;;14.20;99.90;;;;;;5074747;28;20017;-64
2021/04/26 12:48:19;;;;;;;49.15;45.28;;;14.20;99.90;;;;;;5074779;28;20020;-65